createdAt,value
2023-03-30T00:02:23.198Z,8.60
2023-03-30T00:06:26.913Z,8.61
2023-03-30T00:10:31.004Z,8.64
2023-03-30T00:14:37.756Z,8.66
2023-03-30T00:18:41.471Z,8.67
2023-03-30T00:22:45.882Z,8.65
2023-03-30T00:26:49.501Z,8.62
2023-03-30T00:30:53.991Z,8.64
2023-03-30T00:34:57.702Z,8.65
2023-03-30T00:39:01.576Z,8.65
2023-03-30T00:43:07.651Z,8.60
2023-03-30T00:47:11.657Z,8.57
2023-03-30T00:51:16.297Z,8.52
2023-03-30T00:55:23.091Z,8.52
2023-03-30T00:59:27.045Z,8.51
2023-03-30T01:03:45.937Z,8.46
2023-03-30T01:07:50.106Z,8.42
2023-03-30T01:11:54.014Z,8.37
2023-03-30T01:16:03.897Z,8.38
2023-03-30T01:20:25.826Z,8.41
2023-03-30T01:25:06.660Z,8.46
2023-03-30T01:29:13.144Z,8.51
2023-03-30T01:33:55.384Z,8.50
2023-03-30T01:38:23.468Z,8.50
2023-03-30T01:43:13.208Z,8.57
2023-03-30T01:47:16.748Z,8.59
2023-03-30T01:51:24.276Z,8.65
2023-03-30T01:55:37.126Z,8.66
2023-03-30T01:59:48.589Z,8.70
2023-03-30T02:03:57.405Z,8.69
2023-03-30T02:08:07.974Z,8.69
2023-03-30T02:12:12.830Z,8.70
2023-03-30T02:16:22.786Z,8.72
2023-03-30T02:20:26.138Z,8.72
2023-03-30T02:24:32.540Z,8.73
2023-03-30T02:28:36.334Z,8.74
2023-03-30T02:32:46.634Z,8.77
2023-03-30T02:37:19.015Z,8.72
2023-03-30T02:41:47.762Z,8.69
2023-03-30T02:45:53.118Z,8.79
2023-03-30T02:50:06.264Z,8.84
2023-03-30T02:54:24.122Z,8.90
2023-03-30T02:58:37.072Z,8.91
2023-03-30T03:02:44.109Z,8.95
2023-03-30T03:06:48.511Z,8.98
2023-03-30T03:10:52.081Z,9.03
2023-03-30T03:14:55.423Z,9.00
2023-03-30T03:18:59.418Z,8.98
2023-03-30T03:23:02.727Z,8.96
2023-03-30T03:27:06.140Z,8.96
2023-03-30T03:31:09.427Z,8.91
2023-03-30T03:35:12.969Z,8.87
2023-03-30T03:39:16.364Z,8.96
2023-03-30T03:43:20.047Z,8.96
2023-03-30T03:47:23.297Z,8.99
2023-03-30T03:51:26.728Z,8.96
2023-03-30T03:55:30.759Z,8.87
2023-03-30T03:59:34.328Z,8.78
2023-03-30T04:03:37.535Z,8.71
2023-03-30T04:07:41.780Z,8.74
2023-03-30T04:11:45.149Z,8.77
2023-03-30T04:15:48.652Z,8.79
2023-03-30T04:19:54.018Z,8.82
2023-03-30T04:23:57.484Z,8.85
2023-03-30T04:28:01.200Z,8.83
2023-03-30T04:32:05.117Z,8.83
2023-03-30T04:36:09.104Z,8.84
2023-03-30T04:40:13.465Z,8.85
2023-03-30T04:44:20.610Z,8.87
2023-03-30T04:48:24.548Z,8.92
2023-03-30T04:52:28.298Z,8.94
2023-03-30T04:56:32.338Z,8.95
2023-03-30T05:00:35.604Z,8.91
2023-03-30T05:04:39.310Z,8.96
2023-03-30T05:08:42.570Z,9.01
2023-03-30T05:12:46.098Z,9.03
2023-03-30T05:16:49.747Z,9.05
2023-03-30T05:20:58.751Z,9.07
2023-03-30T05:25:02.412Z,9.09
2023-03-30T05:29:06.018Z,9.11
2023-03-30T05:33:10.253Z,9.17
2023-03-30T05:37:13.769Z,9.23
2023-03-30T05:41:17.594Z,9.28
2023-03-30T05:45:20.996Z,9.30
2023-03-30T05:49:24.307Z,9.36
2023-03-30T05:53:27.589Z,9.38
2023-03-30T05:57:31.372Z,9.44
2023-03-30T06:01:34.854Z,9.49
2023-03-30T06:05:40.094Z,9.59
2023-03-30T06:09:43.874Z,9.69
2023-03-30T06:13:48.822Z,9.79
2023-03-30T06:17:52.987Z,9.88
2023-03-30T06:21:56.614Z,9.99
2023-03-30T06:26:01.239Z,10.04
2023-03-30T06:30:04.955Z,10.11
2023-03-30T06:34:08.300Z,10.18
2023-03-30T06:38:11.538Z,10.29
2023-03-30T06:42:14.897Z,10.35
2023-03-30T06:46:18.643Z,10.46
2023-03-30T06:50:22.302Z,10.62
2023-03-30T06:54:25.812Z,10.80
2023-03-30T06:58:30.498Z,10.95
2023-03-30T07:02:34.199Z,11.16
2023-03-30T07:06:37.826Z,11.28
2023-03-30T07:10:41.417Z,11.33
2023-03-30T07:14:44.768Z,11.43
2023-03-30T07:18:48.262Z,11.70
2023-03-30T07:22:52.308Z,12.13
2023-03-30T07:26:55.938Z,12.57
2023-03-30T07:31:07.655Z,12.84
2023-03-30T07:35:11.508Z,12.98
2023-03-30T07:39:14.888Z,13.12
2023-03-30T07:43:18.189Z,13.21
2023-03-30T07:47:21.664Z,13.31
2023-03-30T07:51:27.832Z,13.33
2023-03-30T07:55:32.124Z,13.44
2023-03-30T07:59:35.994Z,13.60
2023-03-30T08:03:40.055Z,13.72
2023-03-30T08:07:43.993Z,13.80
2023-03-30T08:11:47.452Z,13.91
2023-03-30T08:15:52.872Z,14.22
2023-03-30T08:19:58.956Z,14.59
2023-03-30T08:24:02.483Z,14.92
2023-03-30T08:28:06.241Z,15.18
2023-03-30T08:32:09.728Z,15.42
2023-03-30T08:36:13.274Z,15.64
2023-03-30T08:40:19.366Z,15.74
2023-03-30T08:44:27.654Z,15.78
2023-03-30T08:48:38.070Z,15.89
2023-03-30T08:52:42.294Z,15.92
2023-03-30T08:56:59.786Z,15.91
2023-03-30T09:01:28.214Z,15.86
2023-03-30T09:05:37.950Z,15.81
2023-03-30T09:09:47.182Z,16.07
2023-03-30T09:13:52.176Z,16.26
2023-03-30T09:18:23.139Z,16.24
2023-03-30T09:22:32.670Z,16.23
2023-03-30T09:26:55.842Z,16.22
2023-03-30T09:31:18.221Z,16.20
2023-03-30T09:35:27.227Z,16.22
2023-03-30T09:39:34.303Z,16.22
2023-03-30T09:43:46.480Z,16.07
2023-03-30T09:47:49.873Z,15.97
2023-03-30T09:52:00.976Z,16.00
2023-03-30T09:56:17.018Z,16.25
2023-03-30T10:00:29.521Z,16.48
2023-03-30T10:04:32.853Z,16.77
2023-03-30T10:08:56.818Z,16.74
2023-03-30T10:13:06.736Z,16.83
2023-03-30T10:17:21.788Z,16.96
2023-03-30T10:21:28.357Z,16.95
2023-03-30T10:25:34.071Z,16.85
2023-03-30T10:29:37.715Z,16.75
2023-03-30T10:33:44.119Z,16.60
2023-03-30T10:37:50.328Z,16.56
2023-03-30T10:41:56.353Z,16.52
2023-03-30T10:46:23.443Z,16.38
2023-03-30T10:50:46.420Z,16.23
2023-03-30T10:55:11.236Z,16.04
2023-03-30T10:59:23.576Z,15.82
2023-03-30T11:03:32.918Z,15.63
2023-03-30T11:07:43.615Z,15.46
2023-03-30T11:11:55.674Z,15.36
2023-03-30T11:16:35.924Z,15.28
2023-03-30T11:20:59.380Z,15.22
2023-03-30T11:25:15.790Z,15.13
2023-03-30T11:29:28.825Z,15.08
2023-03-30T11:33:45.602Z,14.98
2023-03-30T11:38:09.635Z,14.86
2023-03-30T11:42:18.322Z,14.84
2023-03-30T11:46:30.410Z,14.98
2023-03-30T11:50:46.038Z,15.12
2023-03-30T11:55:16.984Z,15.22
2023-03-30T11:59:49.399Z,15.18
2023-03-30T12:04:08.898Z,15.06
2023-03-30T12:08:40.259Z,15.05
2023-03-30T12:12:45.884Z,15.02
2023-03-30T12:16:55.381Z,15.05
2023-03-30T12:21:20.507Z,15.13
2023-03-30T12:25:33.161Z,15.18
2023-03-30T12:34:07.596Z,15.26
2023-03-30T12:38:17.754Z,15.48
2023-03-30T12:42:27.143Z,15.62
2023-03-30T12:46:58.881Z,15.68
2023-03-30T12:51:14.158Z,15.74
2023-03-30T12:55:38.024Z,15.84
2023-03-30T12:59:56.443Z,15.91
2023-03-30T13:04:07.885Z,15.91
2023-03-30T13:08:41.646Z,16.02
2023-03-30T13:12:49.447Z,16.08
2023-03-30T13:16:53.453Z,16.04
2023-03-30T13:20:56.822Z,16.01
2023-03-30T13:25:22.275Z,16.05
2023-03-30T13:29:31.100Z,15.94
2023-03-30T13:33:38.911Z,15.85
2023-03-30T13:38:16.182Z,15.82
2023-03-30T13:42:42.538Z,15.76
2023-03-30T13:47:06.799Z,15.78
2023-03-30T13:51:16.734Z,15.74
2023-03-30T13:55:33.650Z,15.73
2023-03-30T13:59:42.875Z,15.77
2023-03-30T14:04:01.031Z,15.80
2023-03-30T14:08:10.426Z,15.78
2023-03-30T14:12:15.221Z,15.78
2023-03-30T14:16:22.885Z,15.73
2023-03-30T14:20:46.966Z,15.69
2023-03-30T14:24:58.716Z,15.67
2023-03-30T14:29:21.047Z,15.70
2023-03-30T14:33:35.061Z,15.78
2023-03-30T14:37:38.376Z,16.04
2023-03-30T14:41:42.607Z,16.25
2023-03-30T14:45:46.176Z,16.37
2023-03-30T14:49:52.015Z,16.35
2023-03-30T14:53:56.161Z,16.31
2023-03-30T14:57:59.402Z,16.20
2023-03-30T15:02:03.946Z,16.11
2023-03-30T15:06:08.492Z,15.94
2023-03-30T15:10:22.553Z,15.79
2023-03-30T15:14:27.355Z,15.59
2023-03-30T15:18:33.924Z,15.54
2023-03-30T15:22:44.906Z,15.45
2023-03-30T15:26:50.256Z,15.37
2023-03-30T15:30:54.806Z,15.37
2023-03-30T15:35:14.787Z,15.32
2023-03-30T15:39:28.050Z,15.24
2023-03-30T15:43:33.792Z,15.21
2023-03-30T15:47:38.975Z,15.15
2023-03-30T15:51:53.766Z,15.07
2023-03-30T15:55:59.773Z,14.96
2023-03-30T16:00:12.875Z,14.90
2023-03-30T16:04:19.163Z,14.75
2023-03-30T16:08:23.014Z,14.79
2023-03-30T16:12:29.816Z,14.81
2023-03-30T16:16:35.232Z,14.91
2023-03-30T16:20:39.161Z,15.02
2023-03-30T16:24:43.767Z,15.13
2023-03-30T16:28:51.374Z,15.33
2023-03-30T16:32:55.242Z,15.48
2023-03-30T16:36:58.829Z,15.55
2023-03-30T16:41:04.083Z,15.53
2023-03-30T16:45:08.618Z,15.44
2023-03-30T16:49:17.974Z,15.33
2023-03-30T16:53:21.649Z,15.26
2023-03-30T16:57:25.588Z,15.15
2023-03-30T17:01:30.470Z,15.06
2023-03-30T17:05:34.422Z,14.92
2023-03-30T17:09:38.273Z,14.80
2023-03-30T17:13:43.328Z,14.66
2023-03-30T17:17:48.089Z,14.38
2023-03-30T17:21:52.413Z,14.14
2023-03-30T17:25:58.686Z,13.95
2023-03-30T17:30:02.334Z,13.72
2023-03-30T17:34:07.530Z,13.56
2023-03-30T17:38:12.869Z,13.38
2023-03-30T17:42:19.088Z,13.28
2023-03-30T17:46:25.326Z,13.14
2023-03-30T17:50:49.839Z,13.10
2023-03-30T17:54:54.345Z,13.11
2023-03-30T18:03:22.672Z,13.24
2023-03-30T18:08:14.768Z,13.29
2023-03-30T18:12:18.331Z,13.35
2023-03-30T18:16:24.489Z,13.42
2023-03-30T18:20:32.777Z,13.33
2023-03-30T18:24:35.991Z,13.07
2023-03-30T18:28:42.555Z,12.85
2023-03-30T18:32:47.411Z,12.63
2023-03-30T18:36:51.132Z,12.48
2023-03-30T18:40:58.085Z,12.59
2023-03-30T18:45:01.646Z,12.55
2023-03-30T18:49:05.006Z,12.52
2023-03-30T18:53:13.707Z,12.54
2023-03-30T18:57:17.077Z,12.45
2023-03-30T19:01:20.554Z,12.34
2023-03-30T19:05:26.535Z,12.14
2023-03-30T19:09:42.112Z,12.11
2023-03-30T19:13:47.351Z,12.02
2023-03-30T19:17:51.621Z,11.95
2023-03-30T19:21:58.302Z,11.86
2023-03-30T19:26:01.720Z,11.86
2023-03-30T19:30:06.185Z,11.84
2023-03-30T19:34:09.423Z,11.83
2023-03-30T19:38:13.701Z,11.74
2023-03-30T19:42:17.049Z,11.69
2023-03-30T19:46:20.864Z,11.69
2023-03-30T19:50:25.535Z,11.72
2023-03-30T19:54:29.560Z,11.80
2023-03-30T19:58:33.056Z,11.80
2023-03-30T20:02:36.844Z,11.75
2023-03-30T20:06:40.328Z,11.53
2023-03-30T20:10:48.390Z,11.39
2023-03-30T20:14:52.176Z,11.39
2023-03-30T20:18:58.118Z,11.34
2023-03-30T20:23:01.996Z,11.26
2023-03-30T20:27:05.981Z,11.22
2023-03-30T20:31:10.131Z,10.98
2023-03-30T20:35:13.836Z,10.77
2023-03-30T20:39:17.624Z,10.63
2023-03-30T20:43:22.136Z,10.50
2023-03-30T20:47:30.581Z,10.40
2023-03-30T20:51:37.682Z,10.40
2023-03-30T20:55:43.082Z,10.41
2023-03-30T20:59:49.093Z,10.38
2023-03-30T21:04:00.567Z,10.38
2023-03-30T21:08:04.080Z,10.36
2023-03-30T21:12:08.848Z,10.35
2023-03-30T21:16:12.622Z,10.27
2023-03-30T21:20:16.139Z,10.22
2023-03-30T21:24:19.555Z,10.23
2023-03-30T21:28:24.662Z,10.18
2023-03-30T21:32:30.751Z,10.14
2023-03-30T21:36:34.942Z,10.07
2023-03-30T21:40:38.347Z,10.04
2023-03-30T21:44:41.706Z,10.09
2023-03-30T21:48:46.421Z,10.07
2023-03-30T21:52:49.780Z,9.93
2023-03-30T21:56:53.060Z,9.88
2023-03-30T22:01:08.980Z,9.84
2023-03-30T22:05:15.094Z,9.70
2023-03-30T22:09:18.919Z,9.60
2023-03-30T22:13:22.222Z,9.67
2023-03-30T22:17:35.199Z,9.75
2023-03-30T22:21:38.508Z,9.84
2023-03-30T22:25:42.785Z,9.96
2023-03-30T22:29:46.602Z,10.14
2023-03-30T22:33:49.989Z,10.31
2023-03-30T22:37:53.941Z,10.51
2023-03-30T22:41:58.937Z,10.64
2023-03-30T22:46:04.370Z,10.81
2023-03-30T22:50:08.149Z,10.92
2023-03-30T22:54:11.377Z,11.03
2023-03-30T22:58:16.004Z,11.12
2023-03-30T23:02:19.292Z,11.18
2023-03-30T23:06:22.779Z,11.21
2023-03-30T23:10:28.174Z,11.17
2023-03-30T23:14:54.123Z,11.01
2023-03-30T23:19:11.528Z,10.75
2023-03-30T23:23:48.974Z,10.56
2023-03-30T23:37:33.050Z,10.28
2023-03-30T23:42:10.002Z,10.26
2023-03-30T23:50:38.098Z,10.32
2023-03-30T23:55:26.045Z,10.34
